Time;durP1;ratioP1;P1;durP2;ratioP2;P2;SDS_P1;SDS_P2;PMS_P1;PMS_P2;Temp;Humidity;BMP_temperature;BMP_pressure;BME280_temperature;BME280_humidity;BME280_pressure;Samples;Min_cycle;Max_cycle;Signal;HPM_P1;HPM_P2
2022/10/30 00:00:30;;;;;;;4.72;3.33;;;18.70;99.90;;;;;;5047602;28;20199;-66
2022/10/30 00:02:56;;;;;;;3.92;3.25;;;18.70;99.90;;;;;;5047612;28;20219;-67
2022/10/30 00:05:22;;;;;;;4.30;3.22;;;18.70;99.90;;;;;;5032365;28;20183;-67
2022/10/30 00:07:49;;;;;;;4.80;3.08;;;18.70;99.90;;;;;;5047181;28;20187;-67
2022/10/30 00:10:17;;;;;;;4.70;3.10;;;18.60;99.90;;;;;;5031960;28;20187;-66
2022/10/30 00:12:42;;;;;;;5.05;2.95;;;18.70;99.90;;;;;;5045774;28;20208;-66
2022/10/30 00:15:10;;;;;;;4.25;3.03;;;18.70;99.90;;;;;;5067495;28;20191;-64
2022/10/30 00:17:36;;;;;;;3.30;3.00;;;18.70;99.90;;;;;;5050806;28;20217;-67
2022/10/30 00:20:02;;;;;;;3.58;3.03;;;18.70;99.90;;;;;;5067487;28;20197;-67
2022/10/30 00:22:28;;;;;;;4.22;3.53;;;18.60;99.90;;;;;;5067398;28;20240;-66
2022/10/30 00:24:53;;;;;;;5.70;3.33;;;18.70;99.90;;;;;;5051885;28;20624;-65
2022/10/30 00:27:19;;;;;;;3.95;3.03;;;18.70;99.90;;;;;;5067240;28;20209;-66
2022/10/30 00:29:46;;;;;;;4.50;3.15;;;18.70;99.90;;;;;;5038235;28;20189;-66
2022/10/30 00:32:12;;;;;;;5.25;3.15;;;18.60;99.90;;;;;;5071261;28;20183;-66
2022/10/30 00:34:37;;;;;;;5.80;3.47;;;18.70;99.90;;;;;;5084902;28;20664;-66
2022/10/30 00:37:06;;;;;;;4.32;3.13;;;18.60;99.90;;;;;;5091623;28;20186;-65
2022/10/30 00:39:32;;;;;;;3.95;3.28;;;18.70;99.90;;;;;;5057791;28;20211;-66
2022/10/30 00:41:57;;;;;;;4.75;3.00;;;18.60;99.90;;;;;;5075733;28;20212;-67
2022/10/30 00:44:43;;;;;;;3.25;2.70;;;18.60;99.90;;;;;;5075753;28;20174;-66
2022/10/30 00:47:24;;;;;;;4.10;2.97;;;18.60;99.90;;;;;;5074486;28;20181;-67
2022/10/30 00:50:08;;;;;;;4.70;3.15;;;18.60;99.90;;;;;;5074452;28;20182;-66
2022/10/30 00:52:43;;;;;;;4.25;3.10;;;18.70;99.90;;;;;;5074570;28;20259;-67
2022/10/30 00:55:20;;;;;;;4.20;3.13;;;18.60;99.90;;;;;;5057918;28;20184;-66
2022/10/30 00:57:47;;;;;;;4.95;3.00;;;18.60;99.90;;;;;;5074263;28;20177;-65
2022/10/30 01:00:16;;;;;;;3.80;2.80;;;18.60;99.90;;;;;;5090930;28;20188;-67
2022/10/30 01:02:43;;;;;;;4.80;2.63;;;18.60;99.90;;;;;;5057691;28;20249;-67
2022/10/30 01:05:17;;;;;;;4.03;3.05;;;18.60;99.90;;;;;;5070721;28;20178;-67
2022/10/30 01:07:43;;;;;;;3.33;2.70;;;18.60;99.90;;;;;;5054058;28;20182;-67
2022/10/30 01:10:11;;;;;;;3.65;2.80;;;18.60;99.90;;;;;;5070440;28;20198;-65
2022/10/30 01:12:38;;;;;;;3.97;2.90;;;18.60;99.90;;;;;;5070445;28;20289;-67
2022/10/30 01:15:06;;;;;;;3.20;2.85;;;18.60;99.90;;;;;;5053956;28;20516;-67
2022/10/30 01:18:20;;;;;;;4.28;3.10;;;18.60;99.90;;;;;;5054144;28;20576;-67
2022/10/30 01:21:32;;;;;;;3.40;2.50;;;18.60;99.90;;;;;;5008628;28;20206;-65
2022/10/30 01:24:22;;;;;;;2.97;2.55;;;18.60;99.90;;;;;;5070625;28;20708;-64
2022/10/30 01:27:16;;;;;;;3.95;2.72;;;18.60;99.90;;;;;;5054081;28;20178;-66
2022/10/30 01:30:11;;;;;;;5.28;2.88;;;18.60;99.90;;;;;;5053655;28;20650;-67
2022/10/30 01:33:23;;;;;;;3.80;2.92;;;18.60;99.90;;;;;;5096762;22;20602;-70
2022/10/30 01:36:29;;;;;;;4.40;2.38;;;18.60;99.90;;;;;;5054920;28;20202;-70
2022/10/30 01:39:03;;;;;;;3.22;2.70;;;18.60;99.90;;;;;;5055737;28;20182;-70
2022/10/30 01:41:28;;;;;;;3.25;2.95;;;18.60;99.90;;;;;;5055426;28;20178;-70
2022/10/30 01:44:07;;;;;;;4.63;2.95;;;18.60;99.90;;;;;;5072332;28;20244;-71
2022/10/30 01:46:50;;;;;;;3.00;2.35;;;18.60;99.90;;;;;;5039385;28;20205;-69
2022/10/30 01:49:46;;;;;;;4.20;2.88;;;18.60;99.90;;;;;;5055994;28;20181;-70
2022/10/30 01:52:42;;;;;;;4.28;3.15;;;18.60;99.90;;;;;;5055310;28;20192;-70
2022/10/30 01:55:29;;;;;;;2.83;2.50;;;18.60;99.90;;;;;;5055473;28;20269;-70
2022/10/30 01:58:20;;;;;;;3.13;2.55;;;18.60;99.90;;;;;;5039297;28;20184;-70
2022/10/30 02:00:56;;;;;;;5.32;2.95;;;18.60;99.90;;;;;;5039467;28;20190;-70
2022/10/30 02:03:22;;;;;;;6.53;3.20;;;18.60;99.90;;;;;;5051832;28;20231;-70
2022/10/30 02:05:51;;;;;;;3.55;2.88;;;18.60;99.90;;;;;;5075260;28;20191;-70
2022/10/30 02:08:19;;;;;;;2.95;2.40;;;18.60;99.90;;;;;;5075396;28;20186;-70
2022/10/30 02:10:48;;;;;;;2.95;2.50;;;18.60;99.90;;;;;;5075304;28;20260;-70
2022/10/30 02:13:14;;;;;;;3.10;2.58;;;18.60;99.90;;;;;;5058671;28;20200;-70
2022/10/30 02:15:44;;;;;;;3.83;2.65;;;18.60;99.90;;;;;;5058623;28;20181;-70
2022/10/30 02:18:10;;;;;;;3.55;2.38;;;18.60;99.90;;;;;;5075365;28;20268;-70
2022/10/30 02:20:36;;;;;;;3.55;3.20;;;18.60;99.90;;;;;;5058297;28;20184;-70
2022/10/30 02:23:03;;;;;;;4.25;2.88;;;18.60;99.90;;;;;;5058594;28;20282;-70
2022/10/30 02:25:34;;;;;;;4.10;2.67;;;18.60;99.90;;;;;;5091900;28;20189;-69
2022/10/30 02:27:59;;;;;;;3.50;2.85;;;18.60;99.90;;;;;;5058516;28;20192;-69
2022/10/30 02:30:28;;;;;;;5.25;2.40;;;18.60;99.90;;;;;;5059180;28;20267;-69
2022/10/30 02:32:53;;;;;;;3.40;2.27;;;18.60;99.90;;;;;;5018509;28;1049116;-71
2022/10/30 02:35:20;;;;;;;4.07;2.55;;;18.60;99.90;;;;;;5055980;28;20173;-70
2022/10/30 02:37:48;;;;;;;3.47;2.90;;;18.60;99.90;;;;;;5055597;28;20186;-69
2022/10/30 02:40:14;;;;;;;3.90;2.67;;;18.60;99.90;;;;;;5055985;28;20271;-70
2022/10/30 02:42:39;;;;;;;2.95;2.35;;;18.60;99.90;;;;;;5039112;28;20259;-70
2022/10/30 02:45:06;;;;;;;5.10;2.53;;;18.60;99.90;;;;;;5055655;28;20185;-70
2022/10/30 02:47:32;;;;;;;3.20;2.60;;;18.60;99.90;;;;;;5055624;28;20181;-70
2022/10/30 02:49:58;;;;;;;3.65;2.70;;;18.60;99.90;;;;;;5055468;28;20209;-69
2022/10/30 02:52:25;;;;;;;4.10;2.70;;;18.60;99.90;;;;;;5038849;28;20185;-69
2022/10/30 02:54:50;;;;;;;4.35;3.00;;;18.60;99.90;;;;;;5055883;28;20178;-71
2022/10/30 02:57:16;;;;;;;3.80;2.45;;;18.60;99.90;;;;;;5055290;28;20230;-70
2022/10/30 02:59:43;;;;;;;4.60;2.88;;;18.60;99.90;;;;;;5039124;28;20180;-70
2022/10/30 03:02:09;;;;;;;3.95;2.50;;;18.60;99.90;;;;;;5037182;28;20197;-70
2022/10/30 03:04:35;;;;;;;4.78;2.53;;;18.60;99.90;;;;;;5055235;28;20210;-71
2022/10/30 03:07:01;;;;;;;3.22;2.50;;;18.50;99.90;;;;;;5055350;28;20190;-70
2022/10/30 03:09:27;;;;;;;4.60;3.10;;;18.50;99.90;;;;;;5038868;28;20223;-69
2022/10/30 03:11:53;;;;;;;4.05;2.58;;;18.50;99.90;;;;;;5054914;28;20197;-70
2022/10/30 03:14:21;;;;;;;3.15;2.42;;;18.60;99.90;;;;;;5039159;28;20201;-70
2022/10/30 03:16:47;;;;;;;3.38;2.45;;;18.50;99.90;;;;;;5038293;28;20174;-70
2022/10/30 03:19:15;;;;;;;3.00;2.47;;;18.50;99.90;;;;;;5055103;28;20665;-70
2022/10/30 03:21:40;;;;;;;4.85;2.53;;;18.50;99.90;;;;;;5054992;28;20214;-70
2022/10/30 03:24:06;;;;;;;2.97;2.30;;;18.50;99.90;;;;;;5038153;28;20269;-70
2022/10/30 03:26:32;;;;;;;2.70;2.40;;;18.50;99.90;;;;;;5055190;28;20240;-71
2022/10/30 03:29:06;;;;;;;4.38;3.10;;;18.50;99.90;;;;;;5072736;28;20176;-70
2022/10/30 03:31:32;;;;;;;3.00;2.40;;;18.50;99.90;;;;;;5038262;28;20182;-71
2022/10/30 03:34:18;;;;;;;3.78;2.72;;;18.50;99.90;;;;;;5072384;28;20213;-71
2022/10/30 03:36:43;;;;;;;3.78;2.58;;;18.50;99.90;;;;;;5054884;28;20698;-70
2022/10/30 03:39:10;;;;;;;4.90;2.60;;;18.50;99.90;;;;;;5038497;28;20667;-70
2022/10/30 03:41:37;;;;;;;3.42;2.40;;;18.50;99.90;;;;;;5037883;28;20263;-70
2022/10/30 03:44:02;;;;;;;3.78;2.80;;;18.60;99.90;;;;;;5037843;28;20590;-70
2022/10/30 03:46:30;;;;;;;3.22;2.30;;;18.60;99.90;;;;;;5037807;28;20182;-70
2022/10/30 03:49:04;;;;;;;4.85;2.72;;;18.50;99.90;;;;;;5039164;28;20231;-70
2022/10/30 03:51:30;;;;;;;3.08;2.53;;;18.50;99.90;;;;;;5037779;28;20170;-70
2022/10/30 03:53:56;;;;;;;3.42;2.53;;;18.50;99.90;;;;;;5037789;28;20553;-70
2022/10/30 03:56:22;;;;;;;3.67;2.40;;;18.50;99.90;;;;;;5038111;28;20214;-70
2022/10/30 03:58:52;;;;;;;2.58;2.25;;;18.50;99.90;;;;;;5037199;28;20178;-71
2022/10/30 04:01:20;;;;;;;4.00;2.40;;;18.50;99.90;;;;;;5060742;28;20606;-70
2022/10/30 04:03:52;;;;;;;2.88;2.63;;;18.50;99.90;;;;;;5034676;28;20221;-70
2022/10/30 04:06:18;;;;;;;4.18;2.60;;;18.50;99.90;;;;;;5034800;28;20539;-69
2022/10/30 04:08:44;;;;;;;3.38;2.22;;;18.50;99.90;;;;;;5037577;28;20201;-70
2022/10/30 04:11:10;;;;;;;3.55;2.60;;;18.60;99.90;;;;;;5044001;28;20187;-69
2022/10/30 04:13:37;;;;;;;2.50;2.28;;;18.50;99.90;;;;;;5042336;28;20202;-72
2022/10/30 04:16:04;;;;;;;4.10;2.38;;;18.50;99.90;;;;;;5054332;28;20543;-71
2022/10/30 04:18:31;;;;;;;3.08;2.58;;;18.50;99.90;;;;;;5070540;28;20181;-71
2022/10/30 04:20:59;;;;;;;2.47;2.28;;;18.50;99.90;;;;;;5037780;28;20196;-70
2022/10/30 04:23:24;;;;;;;2.28;2.05;;;18.50;99.90;;;;;;5054305;28;20217;-70
2022/10/30 04:25:50;;;;;;;2.40;2.20;;;18.50;99.90;;;;;;5037537;28;20185;-70
2022/10/30 04:28:17;;;;;;;2.88;1.90;;;18.50;99.90;;;;;;5054371;28;20182;-71
2022/10/30 04:30:44;;;;;;;3.13;2.13;;;18.50;99.90;;;;;;5037399;28;20649;-70
2022/10/30 04:33:12;;;;;;;3.10;2.30;;;18.50;99.90;;;;;;5053810;28;20643;-70
2022/10/30 04:35:40;;;;;;;2.97;2.42;;;18.50;99.90;;;;;;5037943;28;20281;-70
2022/10/30 04:38:14;;;;;;;3.70;2.50;;;18.50;99.90;;;;;;5054195;28;20178;-71
2022/10/30 04:40:42;;;;;;;4.15;2.13;;;18.50;99.90;;;;;;5037515;28;20572;-70
2022/10/30 04:43:11;;;;;;;2.47;2.20;;;18.50;99.90;;;;;;5054112;28;20221;-70
2022/10/30 04:45:39;;;;;;;2.90;2.47;;;18.50;99.90;;;;;;5037771;28;20185;-71
2022/10/30 04:48:12;;;;;;;2.75;2.30;;;18.50;99.90;;;;;;5054207;28;20178;-70
2022/10/30 04:50:38;;;;;;;3.55;2.42;;;18.50;99.90;;;;;;5037485;28;20220;-70
2022/10/30 04:53:10;;;;;;;3.92;2.25;;;18.50;99.90;;;;;;5037230;28;20233;-70
2022/10/30 04:55:36;;;;;;;3.05;2.63;;;18.50;99.90;;;;;;5053747;28;20196;-69
2022/10/30 04:58:02;;;;;;;2.20;1.80;;;18.50;99.90;;;;;;5053973;28;20194;-71
2022/10/30 05:00:31;;;;;;;3.45;2.20;;;18.50;99.90;;;;;;5037543;28;20193;-70
2022/10/30 05:03:04;;;;;;;3.33;2.28;;;18.50;99.90;;;;;;5038038;28;20304;-70
2022/10/30 05:05:31;;;;;;;3.75;2.20;;;18.50;99.90;;;;;;5037250;28;20264;-70
2022/10/30 05:07:57;;;;;;;3.15;2.65;;;18.50;99.90;;;;;;5037528;28;20200;-70
2022/10/30 05:10:23;;;;;;;4.70;2.85;;;18.50;99.90;;;;;;5053897;28;20667;-71
2022/10/30 05:12:54;;;;;;;3.25;2.30;;;18.50;99.90;;;;;;5053474;28;20198;-70
2022/10/30 05:15:21;;;;;;;3.92;2.33;;;18.50;99.90;;;;;;5056813;28;20182;-71
2022/10/30 05:17:52;;;;;;;4.20;2.42;;;18.50;99.90;;;;;;5041024;28;20185;-71
2022/10/30 05:20:19;;;;;;;3.50;2.35;;;18.50;99.90;;;;;;5041165;28;20227;-71
2022/10/30 05:22:45;;;;;;;3.33;2.60;;;18.50;99.90;;;;;;5056889;28;20232;-71
2022/10/30 05:25:11;;;;;;;3.17;2.33;;;18.50;99.90;;;;;;5040753;28;20200;-70
2022/10/30 05:27:36;;;;;;;5.07;2.42;;;18.50;99.90;;;;;;5057173;28;20181;-70
2022/10/30 05:30:02;;;;;;;4.13;2.53;;;18.50;99.90;;;;;;5040718;28;20184;-69
2022/10/30 05:32:28;;;;;;;3.03;2.58;;;18.50;99.90;;;;;;5040240;28;20276;-70
2022/10/30 05:34:54;;;;;;;3.33;2.50;;;18.50;99.90;;;;;;5040631;28;20204;-70
2022/10/30 05:37:22;;;;;;;3.20;2.33;;;18.50;99.90;;;;;;5056995;28;20213;-70
2022/10/30 05:39:47;;;;;;;4.05;2.53;;;18.50;99.90;;;;;;5057318;28;20217;-70
2022/10/30 05:42:27;;;;;;;2.55;2.28;;;18.50;99.90;;;;;;5056829;28;20210;-71
2022/10/30 05:44:55;;;;;;;2.95;2.45;;;18.50;99.90;;;;;;5056879;28;20269;-69
2022/10/30 05:47:21;;;;;;;3.47;2.40;;;18.50;99.90;;;;;;5056843;28;20205;-70
2022/10/30 05:49:51;;;;;;;2.97;2.22;;;18.50;99.90;;;;;;5040867;28;20557;-69
2022/10/30 05:52:20;;;;;;;3.47;2.40;;;18.50;99.90;;;;;;5040807;28;20183;-70
2022/10/30 05:54:48;;;;;;;4.22;2.42;;;18.50;99.90;;;;;;5040659;28;20680;-70
2022/10/30 05:57:19;;;;;;;2.88;2.22;;;18.50;99.90;;;;;;5054962;28;20273;-71
2022/10/30 05:59:45;;;;;;;2.58;2.38;;;18.50;99.90;;;;;;5056709;28;20280;-71
2022/10/30 06:02:12;;;;;;;2.78;2.10;;;18.50;99.90;;;;;;5056411;28;20212;-70
2022/10/30 06:04:38;;;;;;;2.22;2.03;;;18.40;99.90;;;;;;5056198;28;20209;-69
2022/10/30 06:07:10;;;;;;;4.28;2.22;;;18.40;99.90;;;;;;5056736;28;20174;-71
2022/10/30 06:09:36;;;;;;;4.50;2.90;;;18.50;99.90;;;;;;5056396;28;20238;-70
2022/10/30 06:12:02;;;;;;;2.85;2.53;;;18.40;99.90;;;;;;5056484;28;20653;-70
2022/10/30 06:14:48;;;;;;;3.90;2.63;;;18.50;99.90;;;;;;5063328;28;20220;-69
2022/10/30 06:17:13;;;;;;;4.10;2.47;;;18.50;99.90;;;;;;5039857;28;20194;-70
2022/10/30 06:19:52;;;;;;;5.90;2.35;;;18.40;99.90;;;;;;5072871;28;20284;-70
2022/10/30 06:22:37;;;;;;;3.35;2.15;;;18.40;99.90;;;;;;5073688;28;20227;-71
2022/10/30 06:25:12;;;;;;;3.97;2.30;;;18.50;99.90;;;;;;5040514;28;20694;-70
2022/10/30 06:27:52;;;;;;;2.70;2.33;;;18.40;99.90;;;;;;5056061;28;20182;-70
2022/10/30 06:30:18;;;;;;;2.88;2.15;;;18.40;99.90;;;;;;5056223;28;20188;-70
2022/10/30 06:32:44;;;;;;;2.78;1.90;;;18.40;99.90;;;;;;5055861;28;20205;-69
2022/10/30 06:35:11;;;;;;;3.25;2.47;;;18.40;99.90;;;;;;5056233;28;20185;-70
2022/10/30 06:37:39;;;;;;;4.03;2.20;;;18.40;99.90;;;;;;5056178;28;20177;-70
2022/10/30 06:40:09;;;;;;;3.38;2.30;;;18.40;99.90;;;;;;5055917;28;20186;-70
2022/10/30 06:42:57;;;;;;;4.57;2.67;;;18.40;99.90;;;;;;5055427;28;20214;-70
2022/10/30 06:45:31;;;;;;;3.42;1.90;;;18.40;99.90;;;;;;5056053;28;20706;-70
2022/10/30 06:48:00;;;;;;;4.32;2.20;;;18.50;99.90;;;;;;5055843;28;20303;-69
2022/10/30 06:50:26;;;;;;;3.92;2.25;;;18.40;99.90;;;;;;5055541;28;20178;-69
2022/10/30 06:52:54;;;;;;;2.33;1.80;;;18.40;99.90;;;;;;5055595;28;20262;-69
2022/10/30 06:55:20;;;;;;;3.17;2.00;;;18.40;99.90;;;;;;5055801;28;20181;-70
2022/10/30 06:58:04;;;;;;;3.55;2.53;;;18.40;99.90;;;;;;5058502;28;20193;-70
2022/10/30 07:00:41;;;;;;;4.05;2.03;;;18.40;99.90;;;;;;5055613;28;20200;-72
2022/10/30 07:03:25;;;;;;;3.58;2.20;;;18.50;99.90;;;;;;5057582;28;20225;-70
2022/10/30 07:05:51;;;;;;;3.45;1.92;;;18.40;99.90;;;;;;5055323;28;20177;-71
2022/10/30 07:08:17;;;;;;;2.42;2.13;;;18.40;99.90;;;;;;5038587;28;20193;-70
2022/10/30 07:10:42;;;;;;;2.85;2.50;;;18.40;99.90;;;;;;5055029;28;20174;-70
2022/10/30 07:13:28;;;;;;;3.05;2.47;;;18.50;99.90;;;;;;5044105;28;20213;-71
2022/10/30 07:16:13;;;;;;;4.95;2.10;;;18.40;99.90;;;;;;5073074;28;20180;-70
2022/10/30 07:18:42;;;;;;;2.72;1.88;;;18.50;99.90;;;;;;5055087;28;20186;-70
2022/10/30 07:21:08;;;;;;;3.25;2.30;;;18.40;99.90;;;;;;5038521;28;20269;-71
2022/10/30 07:23:33;;;;;;;2.50;1.90;;;18.50;99.90;;;;;;5055045;28;20217;-70
2022/10/30 07:26:17;;;;;;;2.83;2.03;;;18.50;99.90;;;;;;5040749;28;20212;-71
2022/10/30 07:28:45;;;;;;;4.25;2.08;;;18.50;99.90;;;;;;5055212;28;20178;-70
2022/10/30 07:31:13;;;;;;;3.65;1.95;;;18.50;99.90;;;;;;5072719;28;20189;-71
2022/10/30 07:33:45;;;;;;;2.42;1.90;;;18.50;99.90;;;;;;5086009;22;20747;-66
2022/10/30 07:36:37;;;;;;;3.85;2.40;;;18.50;99.90;;;;;;5038761;28;20185;-67
2022/10/30 07:39:23;;;;;;;4.22;2.20;;;18.50;99.90;;;;;;5070993;28;20181;-67
2022/10/30 07:42:10;;;;;;;2.72;2.10;;;18.50;99.90;;;;;;5061279;28;20607;-67
2022/10/30 07:44:45;;;;;;;4.22;2.13;;;18.50;99.90;;;;;;5053684;28;20205;-66
2022/10/30 07:47:14;;;;;;;3.15;1.90;;;18.50;99.90;;;;;;5035126;28;20193;-65
2022/10/30 07:50:01;;;;;;;2.53;2.30;;;18.50;99.90;;;;;;5034781;28;20204;-66
2022/10/30 07:52:32;;;;;;;4.13;2.13;;;18.50;99.90;;;;;;5038138;28;20185;-66
2022/10/30 07:54:59;;;;;;;2.88;2.00;;;18.50;99.90;;;;;;5038131;28;20217;-68
2022/10/30 07:57:43;;;;;;;4.30;2.22;;;18.50;99.90;;;;;;5043015;28;20174;-68
2022/10/30 08:00:27;;;;;;;2.70;2.05;;;18.60;99.90;;;;;;5051697;28;20196;-67
2022/10/30 08:03:02;;;;;;;2.50;2.08;;;18.50;99.90;;;;;;5019071;28;20639;-66
2022/10/30 08:05:36;;;;;;;3.90;2.58;;;18.50;99.90;;;;;;5034437;28;20257;-66
2022/10/30 08:08:13;;;;;;;3.00;2.00;;;18.50;99.90;;;;;;5051170;28;20193;-68
2022/10/30 08:10:39;;;;;;;4.25;2.10;;;18.50;99.90;;;;;;5051061;28;20183;-67
2022/10/30 08:13:05;;;;;;;3.30;2.33;;;18.50;99.90;;;;;;5051010;28;20224;-65
2022/10/30 08:15:31;;;;;;;4.10;2.63;;;18.50;99.90;;;;;;5034412;28;20183;-68
2022/10/30 08:17:57;;;;;;;5.25;2.60;;;18.60;99.90;;;;;;5050980;28;20174;-68
2022/10/30 08:20:25;;;;;;;2.80;2.20;;;18.60;99.90;;;;;;5018191;28;20197;-68
2022/10/30 08:22:56;;;;;;;3.55;2.17;;;18.60;99.90;;;;;;5017817;28;20252;-68
2022/10/30 08:25:28;;;;;;;3.22;2.30;;;18.60;99.90;;;;;;5034188;28;20192;-68
2022/10/30 08:28:05;;;;;;;2.10;1.88;;;18.60;99.90;;;;;;5017844;28;20183;-68
2022/10/30 08:30:36;;;;;;;3.95;2.40;;;18.60;99.90;;;;;;5034821;28;20650;-68
2022/10/30 08:33:06;;;;;;;4.80;2.28;;;18.60;99.90;;;;;;5017969;28;20187;-68
2022/10/30 08:36:00;;;;;;;5.97;2.42;;;18.60;99.90;;;;;;5038072;28;20236;-68
2022/10/30 08:38:27;;;;;;;3.40;2.67;;;18.60;99.90;;;;;;5040219;28;20181;-68
2022/10/30 08:41:09;;;;;;;5.93;2.70;;;18.60;99.90;;;;;;5036372;28;20274;-69
2022/10/30 08:43:41;;;;;;;3.03;2.25;;;18.70;99.90;;;;;;5045470;28;20214;-68
2022/10/30 08:46:06;;;;;;;4.25;2.60;;;18.60;99.90;;;;;;5070570;28;20272;-68
2022/10/30 08:48:32;;;;;;;3.55;2.25;;;18.60;99.90;;;;;;5038340;28;20184;-68
2022/10/30 08:51:00;;;;;;;3.13;1.90;;;18.70;99.90;;;;;;5041151;28;20205;-68
2022/10/30 08:53:31;;;;;;;3.35;2.40;;;18.70;99.90;;;;;;5058072;28;20263;-68
2022/10/30 08:55:57;;;;;;;3.92;2.72;;;18.60;99.90;;;;;;5058146;28;20224;-68
2022/10/30 08:58:34;;;;;;;4.22;2.50;;;18.60;99.90;;;;;;5057691;28;20209;-68
2022/10/30 09:01:01;;;;;;;4.25;2.50;;;18.70;99.90;;;;;;5041156;28;20177;-68
2022/10/30 09:03:59;;;;;;;4.47;2.08;;;18.70;99.90;;;;;;5029141;28;20240;-68
2022/10/30 09:06:53;;;;;;;4.80;2.45;;;18.70;99.90;;;;;;5061059;28;20193;-68
2022/10/30 09:09:37;;;;;;;2.92;2.30;;;18.70;99.90;;;;;;5057163;28;20200;-69
2022/10/30 09:12:03;;;;;;;2.83;2.25;;;18.70;99.90;;;;;;5052747;28;20171;-68
2022/10/30 09:14:35;;;;;;;2.83;2.08;;;18.70;99.90;;;;;;5040686;28;20201;-69
2022/10/30 09:17:02;;;;;;;4.20;2.63;;;18.70;99.90;;;;;;5057414;28;20206;-69
2022/10/30 09:19:29;;;;;;;3.97;2.30;;;18.70;99.90;;;;;;5057531;28;20186;-68
2022/10/30 09:21:57;;;;;;;4.15;2.70;;;18.70;99.90;;;;;;5057041;28;20202;-68
2022/10/30 09:24:23;;;;;;;3.63;2.95;;;18.70;99.90;;;;;;5040916;28;20201;-68
2022/10/30 09:26:48;;;;;;;5.47;2.92;;;18.70;99.90;;;;;;5057584;28;20182;-68
2022/10/30 09:29:23;;;;;;;4.22;2.70;;;18.70;99.90;;;;;;5057316;28;20170;-68
2022/10/30 09:32:03;;;;;;;3.20;2.40;;;18.70;99.90;;;;;;5059179;28;20621;-68
2022/10/30 09:34:31;;;;;;;5.25;2.38;;;18.70;99.90;;;;;;5057070;28;20326;-68
2022/10/30 09:37:04;;;;;;;4.10;2.55;;;18.70;99.90;;;;;;5073762;28;20181;-68
2022/10/30 09:39:34;;;;;;;3.22;2.58;;;18.70;99.90;;;;;;5057088;28;20185;-69
2022/10/30 09:42:41;;;;;;;4.07;2.50;;;18.70;99.90;;;;;;5073726;28;20210;-69
2022/10/30 09:45:36;;;;;;;3.63;2.70;;;18.70;99.90;;;;;;5073524;28;20288;-69
2022/10/30 09:48:19;;;;;;;4.90;2.75;;;18.70;99.90;;;;;;5040376;28;20239;-69
2022/10/30 09:51:18;;;;;;;4.60;2.40;;;18.70;99.90;;;;;;5041528;28;20311;-69
2022/10/30 09:54:36;;;;;;;4.40;2.90;;;18.70;99.90;;;;;;5017378;28;20203;-69
2022/10/30 09:57:27;;;;;;;4.20;2.45;;;18.70;99.90;;;;;;5017276;28;20211;-68
2022/10/30 10:00:11;;;;;;;3.40;2.25;;;18.80;99.90;;;;;;5016601;28;20188;-68
2022/10/30 10:02:56;;;;;;;5.75;2.88;;;18.70;99.90;;;;;;5018024;28;20207;-69
2022/10/30 10:05:53;;;;;;;4.40;2.58;;;18.70;99.90;;;;;;5033264;28;20183;-69
2022/10/30 10:08:59;;;;;;;4.43;2.55;;;18.70;99.90;;;;;;5035419;28;20246;-69
2022/10/30 10:11:57;;;;;;;4.97;3.03;;;18.80;99.90;;;;;;5059262;28;20205;-69
2022/10/30 10:14:32;;;;;;;5.30;3.03;;;18.80;99.90;;;;;;5039817;28;20296;-69
2022/10/30 10:17:03;;;;;;;3.50;2.47;;;18.80;99.90;;;;;;5056454;28;20252;-69
2022/10/30 10:19:40;;;;;;;3.65;2.53;;;18.80;99.90;;;;;;5072901;28;20247;-69
2022/10/30 10:22:25;;;;;;;3.63;2.30;;;18.80;99.90;;;;;;5072885;28;20216;-68
2022/10/30 10:24:53;;;;;;;3.47;2.58;;;18.70;99.90;;;;;;5055794;28;20209;-67
2022/10/30 10:27:46;;;;;;;4.05;2.50;;;18.80;99.90;;;;;;5020432;28;20186;-68
2022/10/30 10:30:19;;;;;;;3.38;2.45;;;18.80;99.90;;;;;;5055364;28;20182;-68
2022/10/30 10:33:27;;;;;;;4.03;2.53;;;18.80;99.90;;;;;;5053008;28;20186;-68
2022/10/30 10:36:31;;;;;;;3.25;2.42;;;18.80;99.90;;;;;;5036350;28;20182;-68
2022/10/30 10:39:39;;;;;;;4.75;2.50;;;18.80;99.90;;;;;;5035990;28;20186;-67
2022/10/30 10:42:25;;;;;;;4.32;2.55;;;18.80;99.90;;;;;;5043995;28;20222;-68
2022/10/30 10:45:16;;;;;;;2.20;1.90;;;18.80;99.90;;;;;;5019215;28;20256;-68
2022/10/30 10:48:14;;;;;;;5.20;2.75;;;18.80;99.90;;;;;;5053523;28;20166;-68
2022/10/30 10:50:51;;;;;;;3.03;2.13;;;18.80;99.90;;;;;;5052199;28;20201;-68
2022/10/30 10:54:02;;;;;;;4.45;2.55;;;18.80;99.90;;;;;;5053233;28;20202;-68
2022/10/30 10:56:37;;;;;;;4.53;2.47;;;18.80;99.90;;;;;;5003965;28;20661;-68
2022/10/30 10:59:30;;;;;;;4.72;2.45;;;18.80;99.90;;;;;;5018885;28;20192;-68
2022/10/30 11:02:44;;;;;;;5.10;2.30;;;18.80;99.90;;;;;;5018726;28;20186;-68
2022/10/30 11:05:45;;;;;;;4.65;2.30;;;18.80;99.90;;;;;;5035503;28;20202;-68
2022/10/30 11:08:27;;;;;;;3.63;2.25;;;18.80;99.90;;;;;;5015584;28;20203;-66
2022/10/30 11:11:06;;;;;;;8.20;2.58;;;18.80;99.90;;;;;;5032199;28;20203;-68
2022/10/30 11:13:39;;;;;;;4.03;2.22;;;18.80;99.90;;;;;;5031904;28;20253;-68
2022/10/30 11:16:52;;;;;;;6.43;2.20;;;18.80;99.90;;;;;;5032059;28;20191;-68
2022/10/30 11:19:18;;;;;;;4.15;2.33;;;18.80;99.90;;;;;;5015180;28;20191;-68
2022/10/30 11:21:50;;;;;;;3.35;2.03;;;18.80;99.90;;;;;;5032793;28;20190;-68
2022/10/30 11:24:35;;;;;;;2.88;2.08;;;18.80;99.90;;;;;;5032022;28;20210;-68
2022/10/30 11:27:22;;;;;;;3.50;1.90;;;18.80;99.90;;;;;;5031810;28;20183;-68
2022/10/30 11:30:02;;;;;;;3.75;2.38;;;18.80;99.90;;;;;;5031677;28;20289;-68
2022/10/30 11:32:32;;;;;;;4.60;2.20;;;18.80;99.90;;;;;;5031568;28;20167;-69
2022/10/30 11:35:08;;;;;;;4.72;2.25;;;18.80;99.90;;;;;;5031524;28;20219;-68
2022/10/30 11:37:40;;;;;;;6.07;2.10;;;18.80;99.90;;;;;;5015148;28;20182;-68
2022/10/30 11:40:12;;;;;;;5.47;2.30;;;18.80;99.90;;;;;;5015136;28;20190;-68
2022/10/30 11:42:45;;;;;;;4.88;2.03;;;18.80;99.90;;;;;;5030440;28;20238;-68
2022/10/30 11:45:29;;;;;;;4.03;2.22;;;18.80;99.90;;;;;;5014749;28;20187;-68
2022/10/30 11:47:58;;;;;;;4.25;2.38;;;18.80;99.90;;;;;;5031507;28;20243;-67
2022/10/30 11:50:30;;;;;;;4.28;2.50;;;18.80;99.90;;;;;;5031492;28;20274;-68
2022/10/30 11:53:01;;;;;;;4.70;2.45;;;18.90;99.90;;;;;;5014512;28;20187;-68
2022/10/30 11:55:46;;;;;;;2.70;2.10;;;18.90;99.90;;;;;;5014853;28;20183;-68
2022/10/30 11:58:33;;;;;;;2.60;2.00;;;18.90;99.90;;;;;;5031371;28;20623;-68
2022/10/30 12:01:16;;;;;;;2.75;1.73;;;18.90;99.90;;;;;;5031364;28;20205;-68
2022/10/30 12:03:42;;;;;;;3.30;2.17;;;18.80;99.90;;;;;;5014594;28;20309;-68
2022/10/30 12:06:19;;;;;;;3.28;2.10;;;18.90;99.90;;;;;;5031264;28;20658;-68
2022/10/30 12:09:09;;;;;;;3.70;1.95;;;18.90;99.90;;;;;;5031280;28;20175;-67
2022/10/30 12:11:38;;;;;;;4.55;2.20;;;18.90;99.90;;;;;;5014505;28;20175;-67
2022/10/30 12:14:04;;;;;;;4.78;2.10;;;18.90;99.90;;;;;;5014667;28;20199;-67
2022/10/30 12:16:32;;;;;;;5.00;2.17;;;18.90;99.90;;;;;;5031383;28;20278;-67
2022/10/30 12:19:14;;;;;;;4.38;2.35;;;18.90;99.90;;;;;;5014541;28;20226;-68
2022/10/30 12:21:49;;;;;;;3.70;1.92;;;18.90;99.90;;;;;;5030877;28;20684;-68
2022/10/30 12:24:36;;;;;;;3.75;2.03;;;18.90;99.90;;;;;;5016283;28;20218;-67
2022/10/30 12:27:11;;;;;;;3.22;1.80;;;18.90;99.90;;;;;;5035117;28;20183;-68
2022/10/30 12:30:15;;;;;;;3.47;1.92;;;18.90;99.90;;;;;;5018607;28;20179;-68
2022/10/30 12:33:02;;;;;;;5.13;2.30;;;18.90;99.90;;;;;;5018444;28;20167;-68
2022/10/30 12:35:35;;;;;;;2.92;2.30;;;18.90;99.90;;;;;;5035283;28;20228;-68
2022/10/30 12:38:30;;;;;;;4.53;2.35;;;18.90;99.90;;;;;;5018557;28;20190;-68
2022/10/30 12:41:15;;;;;;;3.28;1.70;;;18.90;99.90;;;;;;5014133;28;20202;-68
2022/10/30 12:43:47;;;;;;;2.92;1.90;;;18.90;99.90;;;;;;5057411;28;20206;-68
2022/10/30 12:46:24;;;;;;;2.92;2.08;;;19.00;99.90;;;;;;5022007;28;20183;-68
2022/10/30 12:49:05;;;;;;;3.63;2.35;;;18.90;99.90;;;;;;5037946;28;20190;-68
2022/10/30 12:51:54;;;;;;;3.80;2.15;;;18.90;99.90;;;;;;5021695;28;20174;-68
2022/10/30 12:54:35;;;;;;;4.05;2.05;;;18.90;99.90;;;;;;5037697;28;20209;-68
2022/10/30 12:57:17;;;;;;;3.28;1.98;;;18.90;99.90;;;;;;5018042;28;20183;-68
2022/10/30 13:00:00;;;;;;;4.65;2.13;;;18.90;99.90;;;;;;5021107;28;20251;-68
2022/10/30 13:02:47;;;;;;;3.65;1.50;;;18.90;99.90;;;;;;5032916;28;20214;-68
2022/10/30 13:05:40;;;;;;;5.57;2.10;;;19.00;99.90;;;;;;5037753;28;20178;-68
2022/10/30 13:08:32;;;;;;;2.33;1.70;;;19.00;99.90;;;;;;5054446;28;20316;-68
2022/10/30 13:11:21;;;;;;;3.85;1.95;;;18.90;99.90;;;;;;5054513;28;20187;-68
2022/10/30 13:13:51;;;;;;;3.28;2.00;;;19.00;99.90;;;;;;5054570;28;20221;-68
2022/10/30 13:16:28;;;;;;;4.32;1.67;;;19.00;99.90;;;;;;5054103;28;20567;-68
2022/10/30 13:19:00;;;;;;;5.68;1.88;;;18.90;99.90;;;;;;5054004;28;20182;-68
2022/10/30 13:21:41;;;;;;;4.03;1.70;;;19.00;99.90;;;;;;5053805;28;20281;-69
2022/10/30 13:24:20;;;;;;;4.88;1.75;;;19.00;99.90;;;;;;5054433;28;20222;-68
2022/10/30 13:27:05;;;;;;;4.63;1.85;;;19.00;99.90;;;;;;5038065;28;20276;-68